Terminal Aerodrome Forecast
Issued by NWS Binghamton, NY

Home | Current Version | Previous Version | Text Only | Print | Product List | Glossary On
Versions: 1 2 3 4 5 6 7 8 9 10 11 12 13 14 15 16
000
FTUS41 KBGM 232332
TAFSYR
TAF
KSYR 232332Z 2400/2424 06006KT P6SM BKN040
      TEMPO 2403/2407 3SM -SHRA BKN025
     FM240700 11008KT 5SM -SHRA BR OVC015
      TEMPO 2408/2412 BKN007
     FM241200 16008KT 4SM -SHRA BR OVC015
     FM241600 15009KT P6SM -SHRA BKN022
     FM242200 VRB06KT P6SM BKN035=

USA.gov is the U.S. government's official web portal to all federal, state and local government web resources and services.